Conquistador — WDE8212 — position and weather

sailwx.info

Track history (hours):
 
Tides and Currents Weather Stations Pressure Air Temp Water Temp Dewpoint Dewpoint Depression Visibility Wind Speed Wind Dir Waves Ship Positions

Conquistador

Owner: national facilities corp, Santa Monica, CA. More information available from US FCC via Universal Licensing System and Coast Guard Vessel Documentation Center.

Last reported at 2015-Jul-21 18:07 UTC. Time now 2015-Aug-01 09:50 UTC.
Position N 32°56' W 117°52'.
Warning: this ship's position is 10 days out of date.

Length 22 m.

Type: Pleasure craft. MMSI: 367402860.

Date/timePositionNaut miles runAvg speedWind from/ knotsBaromVisibWave heightAir tempDewpointWater temp
2015-Jul-21 18:07N 32°56' W 117°52'3 5.0
2015-Jul-21 17:33N 32°58' W 117°53'9 9.3
2015-Jul-21 16:32N 33°06' W 117°59'  
2015-Jul-18 15:28N 33°28' W 118°32'0 0.0
2015-Jul-18 14:25N 33°28' W 118°32'0 0.0
2015-Jul-18 13:28N 33°28' W 118°32'0 0.0
2015-Jul-18 12:13N 33°28' W 118°32'0 0.0
2015-Jul-18 11:28N 33°28' W 118°32'0 0.0
2015-Jul-18 10:28N 33°28' W 118°32'0 0.0
2015-Jul-18 09:22N 33°28' W 118°32'0 0.0
2015-Jul-17 22:13N 33°28' W 118°32'9 0.3
2015-Jul-16 10:15N 33°24' W 118°22'43 3.3
2015-Jul-15 21:22N 32°58' W 117°42'4 5.5
2015-Jul-15 20:33N 32°55' W 117°38'5 4.5
2015-Jul-15 19:32N 32°52' W 117°33'9 9.1
2015-Jul-15 18:33N 32°46' W 117°25'11 4.8
2015-Jul-15 16:17N 32°44' W 117°13'0 0.2
2015-Jul-15 15:26N 32°44' W 117°12'0 0.0
2015-Jul-15 14:32N 32°44' W 117°12'0 0.0
2015-Jul-15 13:26N 32°44' W 117°12'0 0.0
2015-Jul-15 12:26N 32°44' W 117°12'0 0.0
2015-Jul-15 11:32N 32°44' W 117°12'0 0.0
2015-Jul-15 10:32N 32°44' W 117°12'0 0.0
2015-Jul-15 09:32N 32°44' W 117°12'0 0.0
2015-Jul-15 08:32N 32°44' W 117°12'0 0.0
2015-Jul-15 07:26N 32°44' W 117°12'0 0.0
2015-Jul-15 06:29N 32°44' W 117°12'0 0.0
2015-Jul-15 05:32N 32°44' W 117°12'0 0.0
2015-Jul-15 04:26N 32°44' W 117°12'0 0.0
2015-Jul-15 03:32N 32°44' W 117°12'0 0.0
2015-Jul-15 02:32N 32°44' W 117°12'0 0.0
2015-Jul-15 01:29N 32°44' W 117°12'0 0.0
2015-Jul-15 00:29N 32°44' W 117°12'0 0.0
2015-Jul-14 23:29N 32°44' W 117°12'0 0.0
2015-Jul-14 22:32N 32°44' W 117°12'0 0.0
2015-Jul-14 21:26N 32°44' W 117°12'0 0.0
2015-Jul-14 20:32N 32°44' W 117°12'0 0.0
2015-Jul-14 19:32N 32°44' W 117°12'0 0.0
2015-Jul-14 18:32N 32°44' W 117°12'0 0.1
2015-Jul-14 15:25N 32°44' W 117°13'0 0.1
2015-Jul-14 13:17N 32°44' W 117°12'0 0.0
2015-Jul-14 12:32N 32°44' W 117°12'0 0.0
2015-Jul-14 11:32N 32°44' W 117°12'0 0.0
2015-Jul-14 10:20N 32°44' W 117°12'0 0.0
2015-Jul-14 09:29N 32°44' W 117°12'0 0.0
2015-Jul-14 08:32N 32°44' W 117°12'0 0.0
2015-Jul-14 07:29N 32°44' W 117°12'0 0.0
2015-Jul-14 06:29N 32°44' W 117°12'0 0.0
2015-Jul-14 05:32N 32°44' W 117°12'0 0.0
2015-Jul-14 04:32N 32°44' W 117°12'0 0.0
2015-Jul-14 03:29N 32°44' W 117°12'0 0.0
2015-Jul-14 02:32N 32°44' W 117°12'0 0.0
2015-Jul-14 01:29N 32°44' W 117°12'0 0.0
2015-Jul-14 00:29N 32°44' W 117°12'0 0.0
2015-Jul-13 23:32N 32°44' W 117°12'0 0.0
2015-Jul-13 22:32N 32°44' W 117°12'0 0.0
2015-Jul-13 21:26N 32°44' W 117°12'0 0.0
2015-Jul-13 20:29N 32°44' W 117°12'0 0.0
2015-Jul-13 19:23N 32°44' W 117°12'0 0.0
2015-Jul-13 17:29N 32°44' W 117°12'0 0.0
2015-Jul-13 16:26N 32°44' W 117°12'0 0.0
2015-Jul-13 15:26N 32°44' W 117°12'0 0.0
2015-Jul-13 14:32N 32°44' W 117°12'0 0.0
2015-Jul-13 13:32N 32°44' W 117°12'0 0.0
2015-Jul-13 12:11N 32°44' W 117°12'0 0.0
2015-Jul-13 11:32N 32°44' W 117°12'0 0.0
2015-Jul-13 10:23N 32°44' W 117°12'0 0.0
2015-Jul-13 09:29N 32°44' W 117°12'0 0.0
2015-Jul-13 08:32N 32°44' W 117°12'0 0.0
2015-Jul-13 07:26N 32°44' W 117°12'0 0.0
2015-Jul-13 06:32N 32°44' W 117°12'0 0.0
2015-Jul-13 05:32N 32°44' W 117°12'0 0.0
2015-Jul-13 04:32N 32°44' W 117°12'0 0.0
2015-Jul-13 03:32N 32°44' W 117°12'0 0.0
2015-Jul-13 02:32N 32°44' W 117°12'0 0.0
2015-Jul-13 01:29N 32°44' W 117°12'0 0.0
2015-Jul-12 22:05N 32°44' W 117°12'0 0.0
2015-Jul-12 19:17N 32°44' W 117°12'0 0.0
2015-Jul-12 18:17N 32°44' W 117°12'0 0.0
2015-Jul-12 17:29N 32°44' W 117°12'0 0.0
2015-Jul-12 15:17N 32°44' W 117°12'0 0.0
2015-Jul-12 14:26N 32°44' W 117°12'0 0.0
2015-Jul-12 13:29N 32°44' W 117°12'0 0.0
2015-Jul-12 10:20N 32°44' W 117°12'0 0.0
2015-Jul-12 08:17N 32°44' W 117°12'0 0.0
2015-Jul-12 07:26N 32°44' W 117°12'0 0.0
2015-Jul-12 06:26N 32°44' W 117°12'0 0.0
2015-Jul-12 05:32N 32°44' W 117°12'0 0.0
2015-Jul-12 04:32N 32°44' W 117°12'0 0.0
2015-Jul-12 03:29N 32°44' W 117°12'0 0.0
2015-Jul-12 02:32N 32°44' W 117°12'0 0.0
2015-Jul-12 01:20N 32°44' W 117°12'0 0.0
2015-Jul-12 00:29N 32°44' W 117°12'0 0.0
2015-Jul-11 23:32N 32°44' W 117°12'0 0.0
2015-Jul-11 22:32N 32°44' W 117°12'0 0.0
2015-Jul-11 21:20N 32°44' W 117°12'0 0.0
2015-Jul-11 20:29N 32°44' W 117°12'0 0.0
2015-Jul-11 19:32N 32°44' W 117°12'0 0.0
2015-Jul-11 18:32N 32°44' W 117°12'  
Track history (hours):
 
Tides and Currents Weather Stations Pressure Air Temp Water Temp Dewpoint Dewpoint Depression Visibility Wind Speed Wind Dir Waves Ship Positions

Conquistador

Owner: national facilities corp, Santa Monica, CA. More information available from US FCC via Universal Licensing System and Coast Guard Vessel Documentation Center.

Last reported at 2015-Jul-21 18:07 UTC. Time now 2015-Aug-01 09:50 UTC.
Position N 32°56' W 117°52'.
Warning: this ship's position is 10 days out of date.

Length 22 m.

Type: Pleasure craft. MMSI: 367402860.

Date/timePositionNaut miles runAvg speedWind from/ knotsBaromVisibWave heightAir tempDewpointWater temp
2015-Jul-21 18:07N 32°56' W 117°52'3 5.0
2015-Jul-21 17:33N 32°58' W 117°53'9 9.3
2015-Jul-21 16:32N 33°06' W 117°59'  
2015-Jul-18 15:28N 33°28' W 118°32'0 0.0
2015-Jul-18 14:25N 33°28' W 118°32'0 0.0
2015-Jul-18 13:28N 33°28' W 118°32'0 0.0
2015-Jul-18 12:13N 33°28' W 118°32'0 0.0
2015-Jul-18 11:28N 33°28' W 118°32'0 0.0
2015-Jul-18 10:28N 33°28' W 118°32'0 0.0
2015-Jul-18 09:22N 33°28' W 118°32'0 0.0
2015-Jul-17 22:13N 33°28' W 118°32'9 0.3
2015-Jul-16 10:15N 33°24' W 118°22'43 3.3
2015-Jul-15 21:22N 32°58' W 117°42'4 5.5
2015-Jul-15 20:33N 32°55' W 117°38'5 4.5
2015-Jul-15 19:32N 32°52' W 117°33'9 9.1
2015-Jul-15 18:33N 32°46' W 117°25'11 4.8
2015-Jul-15 16:17N 32°44' W 117°13'0 0.2
2015-Jul-15 15:26N 32°44' W 117°12'0 0.0
2015-Jul-15 14:32N 32°44' W 117°12'0 0.0
2015-Jul-15 13:26N 32°44' W 117°12'0 0.0
2015-Jul-15 12:26N 32°44' W 117°12'0 0.0
2015-Jul-15 11:32N 32°44' W 117°12'0 0.0
2015-Jul-15 10:32N 32°44' W 117°12'0 0.0
2015-Jul-15 09:32N 32°44' W 117°12'0 0.0
2015-Jul-15 08:32N 32°44' W 117°12'0 0.0
2015-Jul-15 07:26N 32°44' W 117°12'0 0.0
2015-Jul-15 06:29N 32°44' W 117°12'0 0.0
2015-Jul-15 05:32N 32°44' W 117°12'0 0.0
2015-Jul-15 04:26N 32°44' W 117°12'0 0.0
2015-Jul-15 03:32N 32°44' W 117°12'0 0.0
2015-Jul-15 02:32N 32°44' W 117°12'0 0.0
2015-Jul-15 01:29N 32°44' W 117°12'0 0.0
2015-Jul-15 00:29N 32°44' W 117°12'0 0.0
2015-Jul-14 23:29N 32°44' W 117°12'0 0.0
2015-Jul-14 22:32N 32°44' W 117°12'0 0.0
2015-Jul-14 21:26N 32°44' W 117°12'0 0.0
2015-Jul-14 20:32N 32°44' W 117°12'0 0.0
2015-Jul-14 19:32N 32°44' W 117°12'0 0.0
2015-Jul-14 18:32N 32°44' W 117°12'0 0.1
2015-Jul-14 15:25N 32°44' W 117°13'0 0.1
2015-Jul-14 13:17N 32°44' W 117°12'0 0.0
2015-Jul-14 12:32N 32°44' W 117°12'0 0.0
2015-Jul-14 11:32N 32°44' W 117°12'0 0.0
2015-Jul-14 10:20N 32°44' W 117°12'0 0.0
2015-Jul-14 09:29N 32°44' W 117°12'0 0.0
2015-Jul-14 08:32N 32°44' W 117°12'0 0.0
2015-Jul-14 07:29N 32°44' W 117°12'0 0.0
2015-Jul-14 06:29N 32°44' W 117°12'0 0.0
2015-Jul-14 05:32N 32°44' W 117°12'0 0.0
2015-Jul-14 04:32N 32°44' W 117°12'0 0.0
2015-Jul-14 03:29N 32°44' W 117°12'0 0.0
2015-Jul-14 02:32N 32°44' W 117°12'0 0.0
2015-Jul-14 01:29N 32°44' W 117°12'0 0.0
2015-Jul-14 00:29N 32°44' W 117°12'0 0.0
2015-Jul-13 23:32N 32°44' W 117°12'0 0.0
2015-Jul-13 22:32N 32°44' W 117°12'0 0.0
2015-Jul-13 21:26N 32°44' W 117°12'0 0.0
2015-Jul-13 20:29N 32°44' W 117°12'0 0.0
2015-Jul-13 19:23N 32°44' W 117°12'0 0.0
2015-Jul-13 17:29N 32°44' W 117°12'0 0.0
2015-Jul-13 16:26N 32°44' W 117°12'0 0.0
2015-Jul-13 15:26N 32°44' W 117°12'0 0.0
2015-Jul-13 14:32N 32°44' W 117°12'0 0.0
2015-Jul-13 13:32N 32°44' W 117°12'0 0.0
2015-Jul-13 12:11N 32°44' W 117°12'0 0.0
2015-Jul-13 11:32N 32°44' W 117°12'0 0.0
2015-Jul-13 10:23N 32°44' W 117°12'0 0.0
2015-Jul-13 09:29N 32°44' W 117°12'0 0.0
2015-Jul-13 08:32N 32°44' W 117°12'0 0.0
2015-Jul-13 07:26N 32°44' W 117°12'0 0.0
2015-Jul-13 06:32N 32°44' W 117°12'0 0.0
2015-Jul-13 05:32N 32°44' W 117°12'0 0.0
2015-Jul-13 04:32N 32°44' W 117°12'0 0.0
2015-Jul-13 03:32N 32°44' W 117°12'0 0.0
2015-Jul-13 02:32N 32°44' W 117°12'0 0.0
2015-Jul-13 01:29N 32°44' W 117°12'0 0.0
2015-Jul-12 22:05N 32°44' W 117°12'0 0.0
2015-Jul-12 19:17N 32°44' W 117°12'0 0.0
2015-Jul-12 18:17N 32°44' W 117°12'0 0.0
2015-Jul-12 17:29N 32°44' W 117°12'0 0.0
2015-Jul-12 15:17N 32°44' W 117°12'0 0.0
2015-Jul-12 14:26N 32°44' W 117°12'0 0.0
2015-Jul-12 13:29N 32°44' W 117°12'0 0.0
2015-Jul-12 10:20N 32°44' W 117°12'0 0.0
2015-Jul-12 08:17N 32°44' W 117°12'0 0.0
2015-Jul-12 07:26N 32°44' W 117°12'0 0.0
2015-Jul-12 06:26N 32°44' W 117°12'0 0.0
2015-Jul-12 05:32N 32°44' W 117°12'0 0.0
2015-Jul-12 04:32N 32°44' W 117°12'0 0.0
2015-Jul-12 03:29N 32°44' W 117°12'0 0.0
2015-Jul-12 02:32N 32°44' W 117°12'0 0.0
2015-Jul-12 01:20N 32°44' W 117°12'0 0.0
2015-Jul-12 00:29N 32°44' W 117°12'0 0.0
2015-Jul-11 23:32N 32°44' W 117°12'0 0.0
2015-Jul-11 22:32N 32°44' W 117°12'0 0.0
2015-Jul-11 21:20N 32°44' W 117°12'0 0.0
2015-Jul-11 20:29N 32°44' W 117°12'0 0.0
2015-Jul-11 19:32N 32°44' W 117°12'0 0.0
2015-Jul-11 18:32N 32°44' W 117°12'  

Dump ship's entire track history